Time;durP1;ratioP1;P1;durP2;ratioP2;P2;SDS_P1;SDS_P2;PMS_P1;PMS_P2;Temp;Humidity;BMP_temperature;BMP_pressure;BME280_temperature;BME280_humidity;BME280_pressure;Samples;Min_cycle;Max_cycle;Signal;HPM_P1;HPM_P2
2021/06/06 07:00:58;;;;;;;12.45;8.40;;;;;;;15.06;100.00;99225.28;5705288;23;20062;-74
2021/06/06 07:03:27;;;;;;;15.10;9.05;;;;;;;14.98;100.00;99232.44;4938375;29;20735;-74
2021/06/06 07:05:54;;;;;;;12.60;8.00;;;;;;;15.08;100.00;99233.91;4938998;29;20024;-75
2021/06/06 07:08:24;;;;;;;13.05;8.90;;;;;;;15.06;100.00;99235.72;4940308;29;21456;-75
2021/06/06 07:10:50;;;;;;;11.50;8.32;;;;;;;15.08;100.00;99239.13;4940722;28;20027;-75
2021/06/06 07:13:15;;;;;;;14.30;8.50;;;;;;;15.13;100.00;99234.66;4940978;29;20389;-76
2021/06/06 07:15:42;;;;;;;11.50;7.90;;;;;;;15.05;100.00;99228.78;4979877;23;20562;-71
2021/06/06 07:18:09;;;;;;;13.15;8.45;;;;;;;14.96;100.00;99230.81;4947394;28;20389;-73
2021/06/06 07:20:38;;;;;;;13.82;8.82;;;;;;;14.93;100.00;99233.47;4947434;28;20089;-70
2021/06/06 07:23:05;;;;;;;12.40;8.23;;;;;;;15.04;100.00;99227.06;4946227;29;20109;-72
2021/06/06 07:25:31;;;;;;;13.30;8.23;;;;;;;15.08;100.00;99238.25;4947526;28;20047;-71
2021/06/06 07:27:57;;;;;;;11.20;8.35;;;;;;;15.16;100.00;99237.16;4946977;28;20035;-71
2021/06/06 07:30:36;;;;;;;9.90;7.35;;;;;;;15.25;100.00;99237.78;4947453;29;20050;-71
2021/06/06 07:33:04;;;;;;;10.95;7.00;;;;;;;15.32;100.00;99240.16;4941372;29;20043;-71
2021/06/06 07:35:31;;;;;;;14.02;7.82;;;;;;;15.33;100.00;99244.50;4947323;28;20032;-71
2021/06/06 07:37:57;;;;;;;11.32;7.97;;;;;;;15.27;100.00;99238.59;4939859;28;20065;-71
2021/06/06 07:40:30;;;;;;;15.10;8.30;;;;;;;15.30;100.00;99239.34;4947263;29;20059;-71
2021/06/06 07:42:55;;;;;;;14.35;8.85;;;;;;;15.34;100.00;99245.34;4947201;29;20121;-71
2021/06/06 07:45:22;;;;;;;12.13;7.00;;;;;;;15.44;100.00;99241.56;4947056;29;20030;-73
2021/06/06 07:47:48;;;;;;;12.10;7.50;;;;;;;15.35;100.00;99241.84;4946959;29;20069;-73
2021/06/06 07:50:17;;;;;;;12.20;7.93;;;;;;;15.42;100.00;99239.00;4947083;28;20695;-73
2021/06/06 07:52:43;;;;;;;10.32;6.97;;;;;;;15.44;100.00;99236.34;4946949;29;20038;-73
2021/06/06 07:55:12;;;;;;;9.13;6.80;;;;;;;15.45;100.00;99231.97;4947165;28;20043;-73
2021/06/06 07:57:38;;;;;;;8.90;6.30;;;;;;;15.49;100.00;99234.44;4941026;29;20388;-73
2021/06/06 08:00:07;;;;;;;10.63;7.40;;;;;;;15.47;100.00;99228.38;4946694;29;20035;-73
2021/06/06 08:02:32;;;;;;;13.07;8.13;;;;;;;15.41;100.00;99237.28;4940862;29;20827;-73
2021/06/06 08:04:57;;;;;;;12.10;8.18;;;;;;;15.51;100.00;99237.84;4941011;28;20039;-73
2021/06/06 08:07:23;;;;;;;13.20;9.05;;;;;;;15.42;100.00;99235.50;4941320;29;20034;-73
2021/06/06 08:09:48;;;;;;;12.45;8.80;;;;;;;15.54;100.00;99232.53;4940734;29;20031;-73
2021/06/06 08:12:14;;;;;;;16.15;8.88;;;;;;;15.56;100.00;99229.88;4940892;28;20109;-73
2021/06/06 08:14:39;;;;;;;14.43;9.20;;;;;;;15.59;100.00;99240.22;4946593;29;20551;-73
2021/06/06 08:17:05;;;;;;;16.38;9.07;;;;;;;15.58;100.00;99239.38;4941765;28;20484;-73
2021/06/06 08:19:30;;;;;;;15.98;10.55;;;;;;;15.52;100.00;99239.56;4940662;28;20864;-73
2021/06/06 08:21:56;;;;;;;16.52;10.43;;;;;;;15.57;100.00;99237.69;4940534;29;20042;-73
2021/06/06 08:24:21;;;;;;;16.35;10.38;;;;;;;15.47;100.00;99231.00;4946380;29;20062;-73
2021/06/06 08:26:47;;;;;;;20.67;11.57;;;;;;;15.55;100.00;99231.63;4942568;28;20111;-73
2021/06/06 08:29:13;;;;;;;19.90;11.60;;;;;;;15.62;100.00;99225.31;4943889;29;20131;-73
2021/06/06 08:31:40;;;;;;;24.73;12.65;;;;;;;15.58;100.00;99231.53;4946352;29;20065;-73
2021/06/06 08:34:08;;;;;;;25.35;13.07;;;;;;;15.61;100.00;99228.81;4945092;29;20035;-73
2021/06/06 08:36:37;;;;;;;17.90;11.57;;;;;;;15.60;100.00;99231.50;4945869;29;20488;-73
2021/06/06 08:39:30;;;;;;;25.48;12.27;;;;;;;15.59;100.00;99230.63;4940279;29;20523;-73
2021/06/06 08:42:19;;;;;;;21.90;12.20;;;;;;;15.60;100.00;99232.34;4946294;28;20062;-74
2021/06/06 08:44:54;;;;;;;21.27;13.00;;;;;;;15.67;100.00;99233.06;4946204;29;20030;-72
2021/06/06 08:47:25;;;;;;;21.15;12.57;;;;;;;15.58;100.00;99242.00;4940926;29;20032;-73
2021/06/06 08:49:58;;;;;;;27.65;13.90;;;;;;;15.55;100.00;99239.47;4944670;28;20027;-72
2021/06/06 08:52:52;;;;;;;23.10;13.13;;;;;;;15.55;100.00;99238.63;4940245;29;20031;-72
2021/06/06 08:55:34;;;;;;;29.77;15.23;;;;;;;15.55;100.00;99233.38;4940633;28;20446;-71
2021/06/06 08:58:08;;;;;;;25.73;14.55;;;;;;;15.62;100.00;99234.94;4939638;29;20106;-71
2021/06/06 09:00:37;;;;;;;29.88;15.25;;;;;;;15.76;100.00;99240.59;4945089;29;20482;-71
2021/06/06 09:03:13;;;;;;;34.28;16.63;;;;;;;15.63;100.00;99232.28;4943418;29;20493;-71
2021/06/06 09:05:44;;;;;;;30.52;16.17;;;;;;;15.75;100.00;99235.41;4945376;29;20046;-71
2021/06/06 09:08:18;;;;;;;34.10;17.80;;;;;;;15.72;100.00;99232.91;4940830;29;20078;-71
2021/06/06 09:10:47;;;;;;;30.42;16.48;;;;;;;15.84;100.00;99237.72;4945462;29;20046;-71
2021/06/06 09:13:14;;;;;;;38.13;17.70;;;;;;;15.88;100.00;99229.75;4943092;28;20028;-71
2021/06/06 09:15:40;;;;;;;27.95;17.30;;;;;;;15.91;100.00;99236.66;4944211;28;20160;-71
2021/06/06 09:18:19;;;;;;;27.60;16.83;;;;;;;15.96;100.00;99234.75;4939270;28;20031;-72
2021/06/06 09:20:45;;;;;;;33.13;17.58;;;;;;;15.93;100.00;99234.81;4945385;29;20050;-71
2021/06/06 09:23:15;;;;;;;35.50;19.40;;;;;;;15.86;100.00;99235.94;4945497;29;20552;-73
2021/06/06 09:25:44;;;;;;;40.05;18.85;;;;;;;15.70;100.00;99242.53;4944268;28;20058;-71
2021/06/06 09:28:18;;;;;;;36.75;19.38;;;;;;;15.76;100.00;99243.22;4941503;28;20035;-72
2021/06/06 09:30:44;;;;;;;41.35;20.48;;;;;;;15.86;100.00;99238.56;4945204;28;20027;-72
2021/06/06 09:33:19;;;;;;;42.78;20.88;;;;;;;15.81;100.00;99237.81;4945465;28;20042;-72
2021/06/06 09:35:57;;;;;;;41.50;21.42;;;;;;;15.83;100.00;99239.50;4943873;28;20519;-71
2021/06/06 09:38:32;;;;;;;38.95;21.48;;;;;;;16.00;100.00;99238.94;4940114;29;20114;-72
2021/06/06 09:41:12;;;;;;;40.70;23.80;;;;;;;16.02;99.95;99239.75;4945223;29;20511;-71
2021/06/06 09:43:38;;;;;;;40.03;22.15;;;;;;;15.94;100.00;99242.59;4945210;29;20065;-71
2021/06/06 09:46:24;;;;;;;37.28;21.45;;;;;;;15.87;100.00;99250.72;4942906;28;20038;-71
2021/06/06 09:48:51;;;;;;;41.40;23.48;;;;;;;15.86;100.00;99243.78;4944956;28;20078;-72
2021/06/06 09:51:37;;;;;;;42.50;23.70;;;;;;;15.93;100.00;99245.28;4942042;29;20042;-73
2021/06/06 09:54:28;;;;;;;41.33;25.10;;;;;;;15.93;100.00;99250.50;4944540;29;20043;-72
2021/06/06 09:56:57;;;;;;;45.08;24.38;;;;;;;15.81;100.00;99241.31;4941290;29;20035;-72
2021/06/06 09:59:31;;;;;;;41.20;25.65;;;;;;;15.82;100.00;99243.00;4942948;28;20023;-72
2021/06/06 10:02:12;;;;;;;48.85;26.33;;;;;;;15.97;100.00;99246.03;4948302;29;20031;-72
2021/06/06 10:04:44;;;;;;;56.83;27.70;;;;;;;16.00;100.00;99251.16;4948790;28;20515;-72
2021/06/06 10:07:16;;;;;;;47.33;26.38;;;;;;;16.09;100.00;99243.88;4946266;28;20082;-73
2021/06/06 10:09:50;;;;;;;42.97;25.63;;;;;;;16.13;98.75;99252.47;4946421;28;21426;-72
2021/06/06 10:12:34;;;;;;;55.92;35.60;;;;;;;16.06;98.64;99262.28;4942601;29;20034;-72
2021/06/06 10:15:05;;;;;;;46.72;26.23;;;;;;;16.03;99.39;99257.16;4948650;29;20031;-72
2021/06/06 10:17:43;;;;;;;43.28;25.45;;;;;;;16.08;99.15;99257.84;4942682;28;20517;-72
2021/06/06 10:20:17;;;;;;;44.60;25.60;;;;;;;16.07;100.00;99258.75;4946199;28;20030;-72
2021/06/06 10:22:50;;;;;;;45.03;26.27;;;;;;;16.23;98.85;99258.25;4948543;28;20035;-72
2021/06/06 10:25:22;;;;;;;45.88;27.23;;;;;;;16.27;98.26;99249.41;4948550;28;20030;-72
2021/06/06 10:28:00;;;;;;;43.42;27.50;;;;;;;16.45;98.56;99254.88;4944577;29;20110;-72
2021/06/06 10:30:30;;;;;;;46.95;27.08;;;;;;;16.48;98.22;99253.03;4947794;29;20114;-72
2021/06/06 10:33:20;;;;;;;44.22;26.35;;;;;;;16.46;98.60;99247.88;4948276;29;20038;-72
2021/06/06 10:35:46;;;;;;;61.65;39.40;;;;;;;16.43;98.51;99250.56;4947142;28;20035;-72
2021/06/06 10:38:13;;;;;;;45.40;27.23;;;;;;;16.43;98.63;99256.66;4943201;29;20130;-72
2021/06/06 10:40:56;;;;;;;49.03;27.55;;;;;;;16.36;99.03;99249.94;4947341;28;20075;-72
2021/06/06 10:43:47;;;;;;;42.20;25.98;;;;;;;16.33;99.42;99254.41;4945006;29;20038;-72
2021/06/06 10:46:39;;;;;;;48.90;27.75;;;;;;;16.16;100.00;99253.22;4944189;28;20031;-72
2021/06/06 10:49:28;;;;;;;45.22;28.48;;;;;;;16.23;100.00;99258.25;4943102;29;20046;-72
2021/06/06 10:52:01;;;;;;;62.47;37.17;;;;;;;16.38;100.00;99257.72;4943962;28;20153;-72
2021/06/06 10:54:45;;;;;;;51.63;30.13;;;;;;;16.40;100.00;99255.94;4945288;29;20027;-72
2021/06/06 10:57:24;;;;;;;50.25;28.27;;;;;;;16.26;100.00;99258.16;4944273;29;20027;-72
2021/06/06 10:59:54;;;;;;;46.80;28.60;;;;;;;16.40;100.00;99250.69;4947769;28;20108;-72
2021/06/06 11:02:28;;;;;;;52.58;30.83;;;;;;;16.35;100.00;99250.00;4942122;28;20031;-72
2021/06/06 11:04:56;;;;;;;45.97;29.05;;;;;;;16.35;100.00;99247.41;4947969;29;20150;-72
2021/06/06 11:07:43;;;;;;;41.90;26.65;;;;;;;16.60;100.00;99237.78;4943844;29;20066;-72
2021/06/06 11:10:34;;;;;;;46.28;28.95;;;;;;;16.62;98.90;99241.19;4947604;29;20054;-72
2021/06/06 11:13:13;;;;;;;44.63;27.77;;;;;;;16.71;98.74;99234.78;4943561;28;20027;-72
2021/06/06 11:15:42;;;;;;;46.77;30.03;;;;;;;16.70;97.99;99236.53;4946750;29;20031;-72
2021/06/06 11:18:15;;;;;;;52.88;31.48;;;;;;;16.75;98.70;99238.19;4941388;28;20067;-72
2021/06/06 11:20:55;;;;;;;50.30;30.35;;;;;;;16.70;98.24;99228.69;4946516;28;20028;-72
2021/06/06 11:23:31;;;;;;;59.28;33.83;;;;;;;16.70;98.66;99233.94;4947371;28;20034;-72
2021/06/06 11:25:57;;;;;;;56.83;32.80;;;;;;;16.77;98.64;99228.50;4947377;29;20537;-72
2021/06/06 11:28:23;;;;;;;53.63;33.33;;;;;;;16.82;98.51;99218.72;4946024;29;20031;-72
2021/06/06 11:30:51;;;;;;;56.80;31.77;;;;;;;16.75;96.88;99220.72;4946070;28;20449;-72
2021/06/06 11:33:45;;;;;;;54.13;34.50;;;;;;;16.59;97.78;99225.63;4943975;28;20031;-72
2021/06/06 11:36:12;;;;;;;56.15;33.75;;;;;;;16.63;97.83;99216.75;4945151;28;20051;-72
2021/06/06 11:38:44;;;;;;;58.42;32.33;;;;;;;16.58;98.01;99218.66;4947058;29;20039;-72
2021/06/06 11:41:37;;;;;;;54.40;31.60;;;;;;;16.44;98.23;99221.78;4945333;28;20043;-72
2021/06/06 11:44:25;;;;;;;57.90;33.72;;;;;;;16.46;98.95;99219.09;4944336;29;20051;-72
2021/06/06 11:46:52;;;;;;;59.20;35.05;;;;;;;16.40;99.28;99219.31;4946066;28;20040;-72
2021/06/06 11:49:18;;;;;;;61.40;36.70;;;;;;;16.56;99.44;99215.25;4943541;29;20035;-72
2021/06/06 11:51:46;;;;;;;61.92;34.83;;;;;;;16.50;98.62;99215.47;4941005;28;20073;-72
2021/06/06 11:54:32;;;;;;;58.30;36.72;;;;;;;16.54;98.79;99211.84;4946896;28;20034;-72
2021/06/06 11:57:04;;;;;;;70.85;38.13;;;;;;;16.66;98.77;99213.16;4944595;29;20137;-72
2021/06/06 11:59:39;;;;;;;64.53;37.03;;;;;;;16.74;98.26;99210.31;4945540;29;20078;-71
2021/06/06 12:02:12;;;;;;;61.83;37.13;;;;;;;16.73;97.63;99206.84;4942154;28;21342;-71
2021/06/06 12:04:39;;;;;;;87.50;50.95;;;;;;;16.65;98.27;99211.47;4946794;29;20039;-71
2021/06/06 12:07:19;;;;;;;73.72;39.38;;;;;;;16.57;98.00;99214.34;4944115;28;20118;-71
2021/06/06 12:09:47;;;;;;;69.63;38.22;;;;;;;16.59;99.00;99204.69;4946405;29;20725;-71
2021/06/06 12:12:31;;;;;;;79.60;44.35;;;;;;;16.61;98.98;99208.09;4941533;29;20042;-71
2021/06/06 12:15:14;;;;;;;67.05;37.85;;;;;;;16.50;98.50;99210.25;4946524;29;20089;-71
2021/06/06 12:17:40;;;;;;;71.72;38.63;;;;;;;16.53;98.65;99211.88;4943573;28;20046;-71
2021/06/06 12:20:17;;;;;;;67.95;38.42;;;;;;;16.53;99.15;99209.25;4945665;29;20377;-71
2021/06/06 12:22:42;;;;;;;65.22;38.95;;;;;;;16.54;98.42;99211.84;4944528;28;20035;-71
2021/06/06 12:25:21;;;;;;;69.00;41.65;;;;;;;16.51;99.30;99217.19;4942124;29;20023;-72
2021/06/06 12:27:57;;;;;;;74.00;39.92;;;;;;;16.48;98.21;99216.41;4946049;28;20437;-72
2021/06/06 12:30:23;;;;;;;81.50;46.85;;;;;;;16.49;98.66;99208.53;4945044;29;20035;-72
2021/06/06 12:33:11;;;;;;;68.97;41.47;;;;;;;16.51;98.56;99214.56;4941452;28;20031;-72
2021/06/06 12:35:42;;;;;;;69.38;38.50;;;;;;;16.56;98.02;99210.03;4907134;28;20042;-72
2021/06/06 12:38:12;;;;;;;74.75;41.53;;;;;;;16.43;99.71;99208.72;4944579;28;20035;-74
2021/06/06 12:40:38;;;;;;;;;;;;;;;16.61;99.89;99202.84;4945243;29;20110;-73
2021/06/06 12:43:04;;;;;;;64.57;40.08;;;;;;;16.75;97.97;99198.94;4941983;28;19985;-73
2021/06/06 12:45:32;;;;;;;66.97;40.88;;;;;;;16.75;98.82;99204.16;4942927;28;21424;-73
2021/06/06 12:48:25;;;;;;;73.57;41.67;;;;;;;16.73;98.29;99201.63;4945686;29;20027;-74
2021/06/06 12:50:52;;;;;;;75.47;42.92;;;;;;;16.68;98.04;99199.13;4944346;29;20536;-73
2021/06/06 12:53:26;;;;;;;71.80;43.05;;;;;;;16.79;97.80;99190.91;4945707;29;20045;-73
2021/06/06 12:55:53;;;;;;;75.00;42.92;;;;;;;16.81;96.82;99194.31;4945428;28;20137;-73
2021/06/06 12:58:26;;;;;;;77.97;44.35;;;;;;;16.78;97.46;99193.56;4944227;29;20027;-73
2021/06/06 13:00:56;;;;;;;68.50;42.05;;;;;;;16.82;97.76;99195.16;4939592;29;20031;-74
2021/06/06 13:03:27;;;;;;;77.93;42.78;;;;;;;16.86;98.67;99196.75;4945754;28;20506;-73
2021/06/06 13:05:55;;;;;;;72.15;41.55;;;;;;;16.93;97.62;99198.25;4943968;28;20484;-74
2021/06/06 13:08:37;;;;;;;75.38;42.67;;;;;;;16.99;96.98;99197.19;4944575;29;20083;-73
2021/06/06 13:11:28;;;;;;;89.78;55.08;;;;;;;16.89;97.74;99202.75;4943562;29;20039;-73
2021/06/06 13:14:06;;;;;;;75.07;44.28;;;;;;;17.01;98.67;99206.66;4943623;28;20035;-73
2021/06/06 13:16:35;;;;;;;85.50;46.63;;;;;;;16.93;99.07;99206.97;4942181;28;20050;-73
2021/06/06 13:19:17;;;;;;;78.93;48.03;;;;;;;16.93;98.39;99203.50;4945905;29;20159;-73
2021/06/06 13:21:44;;;;;;;73.97;42.97;;;;;;;16.99;99.40;99205.88;4939344;29;20031;-73
2021/06/06 13:24:21;;;;;;;77.20;43.65;;;;;;;16.98;99.58;99201.56;4944382;28;20528;-74
2021/06/06 13:26:47;;;;;;;80.55;43.65;;;;;;;17.04;98.26;99209.19;4942778;29;21270;-74
2021/06/06 13:29:34;;;;;;;68.97;42.28;;;;;;;16.95;98.10;99206.91;4943994;29;20031;-74
2021/06/06 13:32:10;;;;;;;74.70;42.67;;;;;;;16.98;98.70;99206.78;4940786;29;20039;-73
2021/06/06 13:34:35;;;;;;;70.47;42.70;;;;;;;16.96;99.42;99200.75;4945135;28;21504;-73
2021/06/06 13:37:00;;;;;;;77.93;45.13;;;;;;;16.84;100.00;99203.84;4942648;28;20035;-73
2021/06/06 13:39:30;;;;;;;77.05;43.33;;;;;;;16.95;99.30;99199.03;4941841;29;20047;-73
2021/06/06 13:41:58;;;;;;;62.15;40.45;;;;;;;17.11;98.77;99208.03;4939140;29;20428;-73
2021/06/06 13:44:23;;;;;;;63.72;40.60;;;;;;;17.15;96.97;99204.38;4944177;28;20037;-73
2021/06/06 13:46:49;;;;;;;66.43;39.70;;;;;;;17.09;97.50;99207.25;4944551;28;20027;-73
2021/06/06 13:49:15;;;;;;;65.82;40.47;;;;;;;17.18;97.75;99204.28;4940376;29;20114;-74
2021/06/06 13:51:42;;;;;;;72.40;40.58;;;;;;;17.23;97.36;99206.72;4942899;29;20105;-73
2021/06/06 13:54:09;;;;;;;67.97;40.00;;;;;;;17.43;96.31;99203.31;4940589;29;20027;-74
2021/06/06 13:56:35;;;;;;;62.95;38.13;;;;;;;17.34;96.94;99211.53;4942193;29;20039;-74
2021/06/06 13:59:02;;;;;;;57.08;34.88;;;;;;;17.34;95.52;99214.16;4939014;28;20023;-74
2021/06/06 14:01:28;;;;;;;58.88;37.63;;;;;;;17.27;96.29;99212.72;4944891;28;20043;-74
2021/06/06 14:03:53;;;;;;;48.97;31.73;;;;;;;17.15;95.61;99214.84;4941055;29;20023;-73
2021/06/06 14:06:18;;;;;;;63.33;37.75;;;;;;;17.13;97.61;99216.69;4944750;28;20299;-74
2021/06/06 14:08:44;;;;;;;60.00;36.10;;;;;;;17.20;97.47;99212.91;4943687;29;20119;-71
2021/06/06 14:11:18;;;;;;;66.22;39.80;;;;;;;17.29;97.69;99216.09;4944792;29;20101;-71
2021/06/06 14:13:44;;;;;;;58.70;38.15;;;;;;;17.34;97.50;99219.41;4939227;29;20377;-71
2021/06/06 14:16:13;;;;;;;59.15;37.47;;;;;;;17.51;96.44;99217.00;4944232;28;20039;-71
2021/06/06 14:18:40;;;;;;;65.32;39.08;;;;;;;17.58;94.43;99217.59;4944136;28;20035;-71
2021/06/06 14:21:08;;;;;;;65.18;39.13;;;;;;;17.66;96.26;99221.63;4943881;29;20523;-71
2021/06/06 14:23:35;;;;;;;58.90;37.10;;;;;;;17.83;94.84;99212.25;4938857;28;20042;-71
2021/06/06 14:26:01;;;;;;;58.72;38.00;;;;;;;17.97;93.80;99209.91;4944633;28;20028;-71
2021/06/06 14:28:26;;;;;;;62.55;39.15;;;;;;;18.14;92.79;99212.72;4944285;28;21036;-71
2021/06/06 14:30:52;;;;;;;68.18;40.85;;;;;;;18.32;92.00;99215.47;4944714;29;20082;-71
2021/06/06 14:33:23;;;;;;;59.33;37.88;;;;;;;18.14;92.76;99217.97;4942265;28;20041;-71
2021/06/06 14:35:54;;;;;;;65.20;39.05;;;;;;;18.31;91.39;99214.59;4943414;28;20094;-71
2021/06/06 14:38:20;;;;;;;59.83;39.70;;;;;;;18.41;91.56;99209.81;4944250;29;20163;-71
2021/06/06 14:40:46;;;;;;;58.28;36.78;;;;;;;18.46;90.61;99208.69;4940124;28;20154;-72
2021/06/06 14:43:13;;;;;;;65.45;37.65;;;;;;;18.55;90.22;99203.97;4942277;28;20047;-72
2021/06/06 14:45:42;;;;;;;62.63;39.25;;;;;;;18.47;89.85;99199.94;4941262;28;20031;-72
2021/06/06 14:48:09;;;;;;;57.00;35.97;;;;;;;18.34;91.43;99204.00;4947605;29;20027;-72
2021/06/06 14:50:36;;;;;;;58.63;36.85;;;;;;;18.32;91.37;99199.72;4945942;29;20046;-72
2021/06/06 14:53:01;;;;;;;54.60;36.42;;;;;;;18.24;92.76;99208.78;4942053;29;20039;-72
2021/06/06 14:55:29;;;;;;;59.72;38.80;;;;;;;17.87;93.52;99203.34;4944646;28;20038;-72
2021/06/06 14:57:54;;;;;;;56.45;37.05;;;;;;;17.76;95.60;99203.78;4945910;28;20082;-72
2021/06/06 15:00:26;;;;;;;63.83;40.15;;;;;;;17.57;95.88;99203.66;4943042;28;20452;-72
2021/06/06 15:02:52;;;;;;;64.00;41.20;;;;;;;17.44;97.45;99199.78;4946330;28;20956;-72
2021/06/06 15:05:18;;;;;;;65.07;41.15;;;;;;;17.32;97.36;99195.91;4944226;28;20103;-72
2021/06/06 15:07:44;;;;;;;64.07;39.15;;;;;;;17.36;98.39;99194.88;4945283;29;20031;-72
2021/06/06 15:10:10;;;;;;;63.13;39.92;;;;;;;17.33;98.25;99194.97;4943059;28;20066;-72
2021/06/06 15:12:36;;;;;;;70.05;43.60;;;;;;;17.21;99.07;99198.06;4946708;29;20408;-72
2021/06/06 15:15:02;;;;;;;77.75;43.28;;;;;;;17.19;98.62;99205.13;4943501;28;20027;-72
2021/06/06 15:17:27;;;;;;;74.72;43.90;;;;;;;17.17;99.88;99196.50;4946733;29;20049;-72
2021/06/06 15:19:52;;;;;;;70.65;44.53;;;;;;;17.20;100.00;99191.97;4945592;28;20023;-72
2021/06/06 15:22:19;;;;;;;74.20;44.45;;;;;;;17.09;100.00;99194.16;4947054;29;20027;-72
2021/06/06 15:24:45;;;;;;;75.88;45.45;;;;;;;17.31;100.00;99193.31;4942733;29;20109;-71
2021/06/06 15:27:10;;;;;;;69.70;44.67;;;;;;;17.20;100.00;99185.88;4947082;28;20106;-72
2021/06/06 15:29:35;;;;;;;71.55;46.40;;;;;;;17.32;100.00;99189.81;4946728;28;20101;-72
2021/06/06 15:32:01;;;;;;;78.05;47.20;;;;;;;17.16;100.00;99185.16;4945674;28;20031;-72
2021/06/06 15:34:29;;;;;;;77.53;44.90;;;;;;;17.23;100.00;99179.69;4942459;29;20111;-72
2021/06/06 15:36:54;;;;;;;93.97;48.33;;;;;;;17.06;100.00;99188.16;4944626;28;20035;-72
2021/06/06 15:39:25;;;;;;;72.88;45.92;;;;;;;17.21;100.00;99177.09;4947378;28;20716;-71
2021/06/06 15:41:51;;;;;;;67.90;41.72;;;;;;;17.18;100.00;99182.47;4944982;29;20027;-71
2021/06/06 15:44:17;;;;;;;80.32;44.28;;;;;;;17.30;100.00;99186.38;4942180;29;20035;-72
2021/06/06 15:46:44;;;;;;;77.70;46.00;;;;;;;17.32;100.00;99184.56;4944232;28;20211;-71
2021/06/06 15:49:10;;;;;;;76.70;41.55;;;;;;;17.59;99.01;99175.59;4942362;29;20049;-72
2021/06/06 15:51:43;;;;;;;64.20;42.58;;;;;;;17.76;98.09;99174.97;4918220;28;20400;-72
2021/06/06 15:54:10;;;;;;;68.47;41.75;;;;;;;17.96;97.07;99174.13;4974583;28;20030;-72
2021/06/06 15:56:36;;;;;;;62.08;39.80;;;;;;;18.18;97.34;99185.44;4963107;28;20034;-71
2021/06/06 15:59:02;;;;;;;86.60;56.10;;;;;;;18.35;93.87;99175.97;4965007;28;20404;-71
2021/06/06 16:01:28;;;;;;;53.78;35.88;;;;;;;18.48;93.12;99169.28;4963041;28;20081;-71
2021/06/06 16:03:53;;;;;;;48.55;31.17;;;;;;;18.36;94.41;99175.06;4960537;28;20039;-71
2021/06/06 16:06:21;;;;;;;46.78;31.10;;;;;;;18.39;92.74;99169.69;4962052;28;20101;-73
2021/06/06 16:08:48;;;;;;;40.42;28.55;;;;;;;18.44;93.04;99168.56;4958627;28;20093;-73
2021/06/06 16:11:16;;;;;;;53.45;31.75;;;;;;;18.36;94.16;99169.81;4963231;28;20748;-72
2021/06/06 16:13:42;;;;;;;46.35;30.80;;;;;;;18.16;94.71;99171.53;4956801;28;20701;-73
2021/06/06 16:16:09;;;;;;;37.55;26.15;;;;;;;18.15;91.92;99167.19;4962480;28;20043;-73
2021/06/06 16:18:34;;;;;;;41.72;27.60;;;;;;;17.85;94.42;99165.88;4959912;28;20555;-73
2021/06/06 16:21:06;;;;;;;45.58;28.58;;;;;;;17.81;95.37;99166.91;4960156;28;20054;-73
2021/06/06 16:23:32;;;;;;;42.88;29.48;;;;;;;17.71;94.79;99171.66;4965382;28;20030;-71
2021/06/06 16:25:58;;;;;;;40.05;27.30;;;;;;;17.75;94.85;99168.03;4959771;28;20046;-71
2021/06/06 16:28:23;;;;;;;46.63;29.75;;;;;;;17.76;95.11;99166.25;4965515;28;20022;-72
2021/06/06 16:30:49;;;;;;;44.63;29.02;;;;;;;17.72;96.12;99163.72;4959220;28;20039;-72
2021/06/06 16:33:15;;;;;;;51.75;29.83;;;;;;;17.66;95.34;99166.59;4965654;28;20084;-71
2021/06/06 16:35:40;;;;;;;45.05;29.65;;;;;;;17.67;96.32;99165.66;4964385;28;20039;-72
2021/06/06 16:38:07;;;;;;;46.80;30.02;;;;;;;17.64;97.09;99160.53;4959306;28;20459;-72
2021/06/06 16:40:34;;;;;;;43.38;28.90;;;;;;;17.69;96.92;99155.97;4964646;28;20037;-72
2021/06/06 16:43:01;;;;;;;41.00;27.77;;;;;;;17.94;94.97;99162.88;4965272;28;20487;-72
2021/06/06 16:45:30;;;;;;;36.80;27.27;;;;;;;17.88;95.82;99155.25;4964762;28;20129;-72
2021/06/06 16:47:56;;;;;;;38.17;27.45;;;;;;;17.81;94.84;99159.91;4959113;28;20488;-72
2021/06/06 16:50:23;;;;;;;42.28;28.85;;;;;;;17.76;96.61;99164.47;4962050;28;20039;-72
2021/06/06 16:52:48;;;;;;;49.28;32.33;;;;;;;17.77;96.97;99154.84;4965089;28;20034;-72
2021/06/06 16:55:16;;;;;;;48.08;31.15;;;;;;;17.81;96.99;99161.66;4959068;28;20416;-72
2021/06/06 16:57:41;;;;;;;46.72;29.35;;;;;;;17.88;96.02;99157.88;4958778;28;20038;-71
2021/06/06 17:00:11;;;;;;;51.10;28.50;;;;;;;17.98;95.90;99159.19;4964535;28;20023;-72
2021/06/06 17:02:37;;;;;;;39.95;28.35;;;;;;;18.16;96.03;99157.56;4965353;28;20033;-72
2021/06/06 17:05:03;;;;;;;45.13;29.48;;;;;;;18.36;94.25;99156.69;4964954;28;20030;-71
2021/06/06 17:07:28;;;;;;;37.45;27.27;;;;;;;18.37;93.11;99153.16;4959312;28;20034;-71
2021/06/06 17:09:54;;;;;;;41.85;27.92;;;;;;;18.08;94.54;99155.25;4961848;28;20026;-72
2021/06/06 17:12:19;;;;;;;37.80;25.05;;;;;;;18.21;92.76;99152.97;4964810;28;20039;-72
2021/06/06 17:14:44;;;;;;;37.85;25.05;;;;;;;18.21;93.14;99148.56;4964903;28;20574;-73
2021/06/06 17:17:10;;;;;;;36.33;25.20;;;;;;;18.31;92.80;99145.56;4959813;28;20511;-73
2021/06/06 17:19:35;;;;;;;36.78;23.52;;;;;;;18.18;92.63;99148.72;4958600;28;20461;-73
2021/06/06 17:22:00;;;;;;;36.60;23.85;;;;;;;18.18;93.40;99153.97;4958776;28;20034;-73
2021/06/06 17:24:26;;;;;;;36.72;24.40;;;;;;;18.26;93.25;99158.00;4964975;28;20034;-73
2021/06/06 17:26:51;;;;;;;35.28;23.33;;;;;;;18.35;91.45;99147.97;4962251;28;20191;-73
2021/06/06 17:29:17;;;;;;;37.10;24.42;;;;;;;18.22;93.23;99150.25;4964435;28;20058;-73
2021/06/06 17:31:44;;;;;;;34.35;23.65;;;;;;;18.44;91.51;99152.81;4964686;28;20033;-73
2021/06/06 17:34:09;;;;;;;40.15;24.42;;;;;;;18.26;91.99;99147.53;4964643;28;20097;-73
2021/06/06 17:36:35;;;;;;;39.20;25.05;;;;;;;18.28;91.64;99148.31;4961106;28;20477;-73
2021/06/06 17:39:03;;;;;;;30.15;21.23;;;;;;;18.31;91.82;99150.78;4964523;28;20026;-74
2021/06/06 17:41:28;;;;;;;27.33;21.67;;;;;;;18.20;91.36;99149.50;4964788;28;20037;-73
2021/06/06 17:43:54;;;;;;;40.10;26.75;;;;;;;17.92;94.09;99164.69;4964359;28;20030;-73
2021/06/06 17:46:20;;;;;;;31.05;21.90;;;;;;;17.99;92.81;99158.28;4960799;28;20054;-73
2021/06/06 17:48:45;;;;;;;43.25;25.02;;;;;;;17.88;94.18;99157.88;4964660;28;20039;-73
2021/06/06 17:51:12;;;;;;;34.28;24.05;;;;;;;17.70;94.96;99165.56;4959041;28;20058;-73
2021/06/06 17:53:38;;;;;;;37.65;25.95;;;;;;;17.57;96.21;99164.34;4964321;28;20094;-73
2021/06/06 17:56:06;;;;;;;37.17;25.58;;;;;;;17.62;95.27;99162.38;4960144;28;20489;-73
2021/06/06 17:58:39;;;;;;;38.40;25.73;;;;;;;17.59;96.29;99162.50;4958336;28;20037;-73
2021/06/06 18:01:06;;;;;;;39.22;26.17;;;;;;;17.52;95.01;99166.28;4964272;28;20027;-72
2021/06/06 18:03:32;;;;;;;39.75;26.15;;;;;;;17.60;94.48;99164.22;4964434;28;20034;-72
2021/06/06 18:05:57;;;;;;;33.63;23.75;;;;;;;17.64;95.08;99171.03;4962627;28;20037;-72
2021/06/06 18:08:24;;;;;;;39.65;24.77;;;;;;;17.41;96.45;99169.34;4957936;28;20024;-72
2021/06/06 18:10:52;;;;;;;30.10;22.65;;;;;;;17.47;95.25;99173.47;4957824;28;20573;-72
2021/06/06 18:13:21;;;;;;;35.25;22.70;;;;;;;17.47;95.54;99168.25;4962097;28;20042;-72
2021/06/06 18:15:47;;;;;;;33.88;23.38;;;;;;;17.41;95.13;99173.72;4964011;28;20050;-72
2021/06/06 18:18:13;;;;;;;33.60;23.38;;;;;;;17.24;96.52;99176.16;4958203;28;20031;-71
2021/06/06 18:20:39;;;;;;;33.75;24.02;;;;;;;17.29;96.68;99176.81;4963554;28;20034;-73
2021/06/06 18:23:08;;;;;;;34.97;24.20;;;;;;;17.27;96.69;99181.28;4967464;28;20035;-73
2021/06/06 18:25:38;;;;;;;31.10;23.38;;;;;;;17.10;98.33;99180.13;4968032;28;20031;-73
2021/06/06 18:28:05;;;;;;;35.38;25.05;;;;;;;17.11;98.68;99173.97;4967583;28;20113;-73
2021/06/06 18:30:31;;;;;;;37.08;25.30;;;;;;;17.13;98.29;99184.41;4967754;28;20458;-73